Jiutai, China
Current Conditions -  °F | °C
As of 12:00 AM on Tuesday 27 Jan 2015 (Local Time) from ZYCC Reporting Station
Clear Clear  
Wind Chill: -11°   Ceiling: Unl
Heat Index:   Visibility: 6mi
Dew Point: -11°   Wind: 7mph
Humidity: 56%   Direction: 280°W
Pressure: 30.39"   Gusts: NA
Location:  44.15°N, 125.84°E
Report Text: ZYCC 261600Z 28003MPS CAVOK M17/M24 Q1029 NOSIG
Loading
Personal Weather Stations






























Interactive Weather Map New forecast layout! Learn more

10-Day Weather Forecast

Advertisements
Track Severe Weather on mobile